createdAt,value
2016-11-25T00:01:06.420Z,3.63
2016-11-25T00:02:17.419Z,3.57
2016-11-25T00:03:28.422Z,3.61
2016-11-25T00:04:39.415Z,3.63
2016-11-25T00:05:50.470Z,3.64
2016-11-25T00:07:01.469Z,3.6
2016-11-25T00:08:12.871Z,3.64
2016-11-25T00:09:24.095Z,3.57
2016-11-25T00:10:35.091Z,3.61
2016-11-25T00:11:46.142Z,3.6
2016-11-25T00:12:57.147Z,3.57
2016-11-25T00:14:08.346Z,3.57
2016-11-25T00:15:19.335Z,3.64
2016-11-25T00:16:30.336Z,3.56
2016-11-25T00:17:41.585Z,3.56
2016-11-25T00:18:52.593Z,3.53
2016-11-25T00:20:03.592Z,3.57
2016-11-25T00:21:14.987Z,3.53
2016-11-25T00:22:25.982Z,3.61
2016-11-25T00:23:37.256Z,3.58
2016-11-25T00:24:48.253Z,3.54
2016-11-25T00:25:59.249Z,3.53
2016-11-25T00:27:10.244Z,3.53
2016-11-25T00:28:21.241Z,3.46
2016-11-25T00:29:32.482Z,3.57
2016-11-25T00:30:43.685Z,3.46
2016-11-25T00:31:54.690Z,3.53
2016-11-25T00:33:05.693Z,3.46
2016-11-25T00:34:16.897Z,3.56
2016-11-25T00:35:27.947Z,3.51
2016-11-25T00:36:38.939Z,3.45
2016-11-25T00:37:50.140Z,3.48
2016-11-25T00:39:01.170Z,3.45
2016-11-25T00:40:12.170Z,3.39
2016-11-25T00:41:23.210Z,3.49
2016-11-25T00:42:34.212Z,3.46
2016-11-25T00:43:45.210Z,3.4
2016-11-25T00:44:56.405Z,3.43
2016-11-25T00:46:07.434Z,3.42
2016-11-25T00:47:18.475Z,3.46
2016-11-25T00:48:29.685Z,3.4
2016-11-25T00:49:40.880Z,3.4
2016-11-25T00:50:51.880Z,3.45
2016-11-25T00:52:02.879Z,3.46
2016-11-25T00:53:13.930Z,3.39
2016-11-25T00:54:24.931Z,3.39
2016-11-25T00:55:36.169Z,3.39
2016-11-25T00:56:47.169Z,3.42
2016-11-25T00:57:58.371Z,3.29
2016-11-25T00:59:09.413Z,3.39
2016-11-25T01:00:20.410Z,3.4
2016-11-25T01:01:31.418Z,3.34
2016-11-25T01:02:42.611Z,3.29
2016-11-25T01:03:53.621Z,3.26
2016-11-25T01:05:04.875Z,3.39
2016-11-25T01:06:15.879Z,3.29
2016-11-25T01:07:26.883Z,3.34
2016-11-25T01:08:37.883Z,3.3
2016-11-25T01:09:48.913Z,3.3
2016-11-25T01:10:59.962Z,3.3
2016-11-25T01:12:10.984Z,3.21
2016-11-25T01:13:21.985Z,3.11
2016-11-25T01:14:32.988Z,3.24
2016-11-25T01:15:43.993Z,3.29
2016-11-25T01:16:55.045Z,3.24
2016-11-25T01:18:06.051Z,3.14
2016-11-25T01:19:17.052Z,3.13
2016-11-25T01:20:28.049Z,3.11
2016-11-25T01:21:39.266Z,3.09
2016-11-25T01:22:50.515Z,3.19
2016-11-25T01:24:01.520Z,3.06
2016-11-25T01:25:12.721Z,3.09
2016-11-25T01:26:23.723Z,2.99
2016-11-25T01:27:34.724Z,3.01
2016-11-25T01:28:45.807Z,3.01
2016-11-25T01:29:56.802Z,3.02
2016-11-25T01:31:07.804Z,3.05
2016-11-25T01:32:18.809Z,3.02
2016-11-25T01:33:30.213Z,3.01
2016-11-25T01:34:41.290Z,2.93
2016-11-25T01:35:52.295Z,2.96
2016-11-25T01:37:03.331Z,2.9
2016-11-25T01:38:14.329Z,2.87
2016-11-25T01:39:25.339Z,2.9
2016-11-25T01:40:36.416Z,2.87
2016-11-25T01:41:47.619Z,2.9
2016-11-25T01:42:58.611Z,2.87
2016-11-25T01:44:09.650Z,2.87
2016-11-25T01:45:20.641Z,2.87
2016-11-25T01:46:31.889Z,2.84
2016-11-25T01:47:42.884Z,2.8
2016-11-25T01:48:53.874Z,2.8
2016-11-25T01:50:05.085Z,2.87
2016-11-25T01:51:16.094Z,2.83
2016-11-25T01:52:27.145Z,2.78
2016-11-25T01:53:38.149Z,2.77
2016-11-25T01:54:49.352Z,2.81
2016-11-25T01:56:00.557Z,2.77
2016-11-25T01:57:11.549Z,2.81
2016-11-25T01:58:22.599Z,2.87
2016-11-25T01:59:33.601Z,2.8
2016-11-25T02:00:44.628Z,2.78
2016-11-25T02:01:55.658Z,2.8
2016-11-25T02:03:06.898Z,2.76
2016-11-25T02:04:18.179Z,2.81
2016-11-25T02:05:29.200Z,2.85
2016-11-25T02:06:40.422Z,2.81
2016-11-25T02:07:51.450Z,2.85
2016-11-25T02:09:02.719Z,2.84
2016-11-25T02:10:13.794Z,2.76
2016-11-25T02:11:24.834Z,2.83
2016-11-25T02:12:35.862Z,2.84
2016-11-25T02:13:47.101Z,2.69
2016-11-25T02:14:58.337Z,2.66
2016-11-25T02:16:09.612Z,2.81
2016-11-25T02:17:20.683Z,2.77
2016-11-25T02:18:31.711Z,2.66
2016-11-25T02:19:42.750Z,2.65
2016-11-25T02:20:53.980Z,2.76
2016-11-25T02:22:05.050Z,2.67
2016-11-25T02:23:16.276Z,2.63
2016-11-25T02:24:27.301Z,2.59
2016-11-25T02:25:38.329Z,2.62
2016-11-25T02:26:49.346Z,2.63
2016-11-25T02:28:00.426Z,2.63
2016-11-25T02:29:11.444Z,2.6
2016-11-25T02:30:22.473Z,2.62
2016-11-25T02:31:33.508Z,2.69
2016-11-25T02:32:44.750Z,2.62
2016-11-25T02:33:56.030Z,2.62
2016-11-25T02:35:07.050Z,2.54
2016-11-25T02:36:18.276Z,2.55
2016-11-25T02:37:29.306Z,2.63
2016-11-25T02:38:40.337Z,2.47
2016-11-25T02:39:51.415Z,2.47
2016-11-25T02:41:02.441Z,2.49
2016-11-25T02:42:13.462Z,2.44
2016-11-25T02:43:24.494Z,2.44
2016-11-25T02:44:35.518Z,2.34
2016-11-25T02:45:47.007Z,2.29
2016-11-25T02:46:58.027Z,2.31
2016-11-25T02:48:09.055Z,2.33
2016-11-25T02:49:20.067Z,2.44
2016-11-25T02:50:31.114Z,2.45
2016-11-25T02:51:42.199Z,2.29
2016-11-25T02:52:53.224Z,2.3
2016-11-25T02:54:04.292Z,2.38
2016-11-25T02:55:15.318Z,2.31
2016-11-25T02:56:26.347Z,2.3
2016-11-25T02:57:37.435Z,2.27
2016-11-25T02:58:48.462Z,2.24
2016-11-25T02:59:59.695Z,2.22
2016-11-25T03:01:10.925Z,2.3
2016-11-25T03:02:21.952Z,2.3
2016-11-25T03:03:33.038Z,2.2
2016-11-25T03:04:44.249Z,2.18
2016-11-25T03:05:55.495Z,2.22
2016-11-25T03:07:06.528Z,2.23
2016-11-25T03:08:17.562Z,2.18
2016-11-25T03:09:28.634Z,2.2
2016-11-25T03:10:39.678Z,2.22
2016-11-25T03:11:50.943Z,2.08
2016-11-25T03:13:01.976Z,2.06
2016-11-25T03:14:12.996Z,2.15
2016-11-25T03:15:24.062Z,2.11
2016-11-25T03:16:35.093Z,2.08
2016-11-25T03:17:46.113Z,2.12
2016-11-25T03:18:57.138Z,2.08
2016-11-25T03:20:08.174Z,2.02
2016-11-25T03:21:19.280Z,1.97
2016-11-25T03:22:30.515Z,1.97
2016-11-25T03:23:41.745Z,1.94
2016-11-25T03:24:52.811Z,2.01
2016-11-25T03:26:03.911Z,1.98
2016-11-25T03:27:15.180Z,1.98
2016-11-25T03:28:26.199Z,1.93
2016-11-25T03:29:37.223Z,1.92
2016-11-25T03:30:48.295Z,1.94
2016-11-25T03:31:59.315Z,1.9
2016-11-25T03:33:10.419Z,1.86
2016-11-25T03:34:21.455Z,1.9
2016-11-25T03:35:32.693Z,1.92
2016-11-25T03:36:43.724Z,1.75
2016-11-25T03:37:54.761Z,1.84
2016-11-25T03:39:06.043Z,1.83
2016-11-25T03:40:17.074Z,1.76
2016-11-25T03:41:28.093Z,1.75
2016-11-25T03:42:39.326Z,1.83
2016-11-25T03:43:50.574Z,1.71
2016-11-25T03:45:01.644Z,1.68
2016-11-25T03:46:12.669Z,1.71
2016-11-25T03:47:23.694Z,1.64
2016-11-25T03:48:34.718Z,1.6
2016-11-25T03:49:45.757Z,1.69
2016-11-25T03:50:56.832Z,1.71
2016-11-25T03:52:08.077Z,1.64
2016-11-25T03:53:19.108Z,1.74
2016-11-25T03:54:30.139Z,1.68
2016-11-25T03:55:41.377Z,1.69
2016-11-25T03:56:52.456Z,1.66
2016-11-25T03:58:03.688Z,1.68
2016-11-25T03:59:14.715Z,1.74
2016-11-25T04:00:25.945Z,1.64
2016-11-25T04:01:36.970Z,1.58
2016-11-25T04:02:48.063Z,1.74
2016-11-25T04:03:59.301Z,1.61
2016-11-25T04:05:10.331Z,1.64
2016-11-25T04:06:21.352Z,1.57
2016-11-25T04:07:32.376Z,1.64
2016-11-25T04:08:43.457Z,1.6
2016-11-25T04:09:54.490Z,1.56
2016-11-25T04:11:05.512Z,1.5
2016-11-25T04:12:16.538Z,1.53
2016-11-25T04:13:27.554Z,1.51
2016-11-25T04:14:38.646Z,1.5
2016-11-25T04:15:49.673Z,1.56
2016-11-25T04:17:00.698Z,1.57
2016-11-25T04:18:11.728Z,1.54
2016-11-25T04:19:22.757Z,1.57
2016-11-25T04:20:33.836Z,1.56
2016-11-25T04:21:44.890Z,1.56
2016-11-25T04:22:56.151Z,1.53
2016-11-25T04:24:07.165Z,1.53
2016-11-25T04:25:18.187Z,1.53
2016-11-25T04:26:29.267Z,1.54
2016-11-25T04:27:40.285Z,1.53
2016-11-25T04:28:51.373Z,1.53
2016-11-25T04:30:02.408Z,1.5
2016-11-25T04:31:13.439Z,1.5
2016-11-25T04:32:24.514Z,1.51
2016-11-25T04:33:35.534Z,1.44
2016-11-25T04:34:46.776Z,1.44
2016-11-25T04:35:57.794Z,1.46
2016-11-25T04:37:08.829Z,1.46
2016-11-25T04:38:19.904Z,1.32
2016-11-25T04:39:30.933Z,1.4
2016-11-25T04:40:42.187Z,1.4
2016-11-25T04:41:53.205Z,1.35
2016-11-25T04:43:04.223Z,1.35
2016-11-25T04:44:15.305Z,1.36
2016-11-25T04:45:26.337Z,1.36
2016-11-25T04:46:37.373Z,1.3
2016-11-25T04:47:48.406Z,1.3
2016-11-25T04:48:59.639Z,1.4
2016-11-25T04:50:11.123Z,1.36
2016-11-25T04:51:22.145Z,1.36
2016-11-25T04:52:33.174Z,1.3
2016-11-25T04:53:44.201Z,1.35
2016-11-25T04:54:55.225Z,1.32
2016-11-25T04:56:06.301Z,1.33
2016-11-25T04:57:17.327Z,1.32
2016-11-25T04:58:28.570Z,1.3
2016-11-25T04:59:39.590Z,1.32
2016-11-25T05:00:50.814Z,1.3
2016-11-25T05:02:01.884Z,1.32
2016-11-25T05:03:12.904Z,1.33
2016-11-25T05:04:24.156Z,1.29
2016-11-25T05:05:35.194Z,1.3
2016-11-25T05:06:46.438Z,1.33
2016-11-25T05:07:57.510Z,1.33
2016-11-25T05:09:08.731Z,1.33
2016-11-25T05:10:19.773Z,1.35
2016-11-25T05:11:30.810Z,1.33
2016-11-25T05:12:41.833Z,1.3
2016-11-25T05:13:52.914Z,1.3
2016-11-25T05:15:03.930Z,1.29
2016-11-25T05:16:14.951Z,1.3
2016-11-25T05:17:25.996Z,1.28
2016-11-25T05:18:37.062Z,1.26
2016-11-25T05:19:48.138Z,1.32
2016-11-25T05:20:59.166Z,1.29
2016-11-25T05:22:10.190Z,1.29
2016-11-25T05:23:21.235Z,1.33
2016-11-25T05:24:32.265Z,1.33
2016-11-25T05:25:43.355Z,1.32
2016-11-25T05:26:54.378Z,1.36
2016-11-25T05:28:05.413Z,1.33
2016-11-25T05:29:16.436Z,1.29
2016-11-25T05:30:27.475Z,1.28
2016-11-25T05:31:38.548Z,1.28
2016-11-25T05:32:49.773Z,1.24
2016-11-25T05:34:01.014Z,1.18
2016-11-25T05:35:12.029Z,1.28
2016-11-25T05:36:23.052Z,1.21
2016-11-25T05:37:34.130Z,1.18
2016-11-25T05:38:45.160Z,1.15
2016-11-25T05:39:56.387Z,1.14
2016-11-25T05:41:07.409Z,1.21
2016-11-25T05:42:18.468Z,1.15
2016-11-25T05:43:29.546Z,1.21
2016-11-25T05:44:40.585Z,1.12
2016-11-25T05:45:51.622Z,1.14
2016-11-25T05:47:02.660Z,1.1
2016-11-25T05:48:13.689Z,1.1
2016-11-25T05:49:24.767Z,1.18
2016-11-25T05:50:35.781Z,1.22
2016-11-25T05:51:47.020Z,1.21
2016-11-25T05:52:58.287Z,1.21
2016-11-25T05:54:09.314Z,1.1
2016-11-25T05:55:20.402Z,1.18
2016-11-25T05:56:31.440Z,1.2
2016-11-25T05:57:42.656Z,1.18
2016-11-25T05:58:53.678Z,1.18
2016-11-25T06:00:04.700Z,1.28
2016-11-25T06:01:15.792Z,1.22
2016-11-25T06:02:26.823Z,1.17
2016-11-25T06:03:37.843Z,1.24
2016-11-25T06:04:48.869Z,1.28
2016-11-25T06:05:59.897Z,1.15
2016-11-25T06:07:11.209Z,1.24
2016-11-25T06:08:22.249Z,1.21
2016-11-25T06:09:33.267Z,1.24
2016-11-25T06:10:44.487Z,1.24
2016-11-25T06:11:55.506Z,1.21
2016-11-25T06:13:06.612Z,1.24
2016-11-25T06:14:17.634Z,1.28
2016-11-25T06:15:28.653Z,1.3
2016-11-25T06:16:39.674Z,1.32
2016-11-25T06:17:50.709Z,1.28
2016-11-25T06:19:01.783Z,1.33
2016-11-25T06:20:13.199Z,1.32
2016-11-25T06:21:24.233Z,1.33
2016-11-25T06:22:35.286Z,1.33
2016-11-25T06:23:46.309Z,1.35
2016-11-25T06:24:57.387Z,1.42
2016-11-25T06:26:08.422Z,1.32
2016-11-25T06:27:19.446Z,1.35
2016-11-25T06:28:30.461Z,1.29
2016-11-25T06:29:41.481Z,1.36
2016-11-25T06:30:52.560Z,1.36
2016-11-25T06:32:03.594Z,1.36
2016-11-25T06:33:14.612Z,1.4
2016-11-25T06:34:25.857Z,1.36
2016-11-25T06:35:36.888Z,1.38
2016-11-25T06:36:47.989Z,1.39
2016-11-25T06:37:59.010Z,1.46
2016-11-25T06:39:10.249Z,1.48
2016-11-25T06:40:21.294Z,1.53
2016-11-25T06:41:32.327Z,1.5
2016-11-25T06:42:43.625Z,1.46
2016-11-25T06:43:54.655Z,1.46
2016-11-25T06:45:05.691Z,1.5
2016-11-25T06:46:16.924Z,1.53
2016-11-25T06:47:27.989Z,1.6
2016-11-25T06:48:39.069Z,1.57
2016-11-25T06:49:50.111Z,1.68
2016-11-25T06:51:01.144Z,1.61
2016-11-25T06:52:12.177Z,1.54
2016-11-25T06:53:23.214Z,1.68
2016-11-25T06:54:34.507Z,1.65
2016-11-25T06:55:45.531Z,1.6
2016-11-25T06:56:56.572Z,1.58
2016-11-25T06:58:07.605Z,1.57
2016-11-25T06:59:18.814Z,1.69
2016-11-25T07:00:29.886Z,1.69
2016-11-25T07:01:40.918Z,1.64
2016-11-25T07:02:51.953Z,1.66
2016-11-25T07:04:02.985Z,1.69
2016-11-25T07:05:14.011Z,1.66
2016-11-25T07:06:25.086Z,1.71
2016-11-25T07:07:36.113Z,1.79
2016-11-25T07:08:47.145Z,1.69
2016-11-25T07:09:58.171Z,1.78
2016-11-25T07:11:09.399Z,1.72
2016-11-25T07:12:20.467Z,1.76
2016-11-25T07:13:31.492Z,1.78
2016-11-25T07:14:42.545Z,1.84
2016-11-25T07:15:53.591Z,1.76
2016-11-25T07:17:04.605Z,1.82
2016-11-25T07:18:15.676Z,1.84
2016-11-25T07:19:26.688Z,1.87
2016-11-25T07:20:37.734Z,1.86
2016-11-25T07:21:52.742Z,1.84
2016-11-25T07:23:03.768Z,1.92
2016-11-25T07:24:14.877Z,1.83
2016-11-25T07:25:26.097Z,1.87
2016-11-25T07:26:37.107Z,1.92
2016-11-25T07:27:48.125Z,1.86
2016-11-25T07:28:59.164Z,1.98
2016-11-25T07:30:10.238Z,1.92
2016-11-25T07:31:21.273Z,1.97
2016-11-25T07:32:32.308Z,1.97
2016-11-25T07:33:43.349Z,2.05
2016-11-25T07:34:54.378Z,2.02
2016-11-25T07:36:05.657Z,1.98
2016-11-25T07:37:16.677Z,2.02
2016-11-25T07:38:27.706Z,2.02
2016-11-25T07:39:38.732Z,2.04
2016-11-25T07:40:50.146Z,2.09
2016-11-25T07:42:01.219Z,2.11
2016-11-25T07:43:12.248Z,2.05
2016-11-25T07:44:23.280Z,2.06
2016-11-25T07:45:34.317Z,2.06
2016-11-25T07:46:45.357Z,2.11
2016-11-25T07:47:56.430Z,2.18
2016-11-25T07:49:07.481Z,2.23
2016-11-25T07:50:18.509Z,2.31
2016-11-25T07:51:29.547Z,2.42
2016-11-25T07:52:40.568Z,2.51
2016-11-25T07:53:51.635Z,2.62
2016-11-25T07:55:02.653Z,2.62
2016-11-25T07:56:13.867Z,2.62
2016-11-25T07:57:25.126Z,2.69
2016-11-25T07:58:36.143Z,2.69
2016-11-25T07:59:47.430Z,2.7
2016-11-25T08:00:58.455Z,2.65
2016-11-25T08:02:09.487Z,2.76
2016-11-25T08:03:20.510Z,2.76
2016-11-25T08:04:31.540Z,2.9
2016-11-25T08:05:42.615Z,3.02
2016-11-25T08:06:53.641Z,2.95
2016-11-25T08:08:04.672Z,2.95
2016-11-25T08:09:15.690Z,2.95
2016-11-25T08:10:26.927Z,3.06
2016-11-25T08:11:38.010Z,3.08
2016-11-25T08:12:49.449Z,3.19
2016-11-25T08:14:00.473Z,3.14
2016-11-25T08:15:11.497Z,3.14
2016-11-25T08:16:22.518Z,3.27
2016-11-25T08:17:33.602Z,3.27
2016-11-25T08:18:44.832Z,3.3
2016-11-25T08:19:56.075Z,3.34
2016-11-25T08:21:07.101Z,3.37
2016-11-25T08:22:18.334Z,3.54
2016-11-25T08:23:29.419Z,3.45
2016-11-25T08:24:40.447Z,3.46
2016-11-25T08:25:51.471Z,3.63
2016-11-25T08:27:02.548Z,3.72
2016-11-25T08:28:13.572Z,3.75
2016-11-25T08:29:25.045Z,3.85
2016-11-25T08:30:36.077Z,3.94
2016-11-25T08:31:47.113Z,4.18
2016-11-25T08:32:58.135Z,4.39
2016-11-25T08:34:09.364Z,4.75
2016-11-25T08:35:20.436Z,5.02
2016-11-25T08:36:31.466Z,5.34
2016-11-25T08:37:42.505Z,5.55
2016-11-25T08:38:53.527Z,5.87
2016-11-25T08:40:04.559Z,6.13
2016-11-25T08:41:15.642Z,6.15
2016-11-25T08:42:26.666Z,6.24
2016-11-25T08:43:37.898Z,6.25
2016-11-25T08:44:48.944Z,6.24
2016-11-25T08:45:59.976Z,6.28
2016-11-25T08:47:11.244Z,6.49
2016-11-25T08:48:22.268Z,6.4
2016-11-25T08:49:33.287Z,6.44
2016-11-25T08:50:44.308Z,6.58
2016-11-25T08:51:55.328Z,6.78
2016-11-25T08:53:06.417Z,6.88
2016-11-25T08:54:17.460Z,6.88
2016-11-25T08:55:28.505Z,6.78
2016-11-25T08:56:39.537Z,6.88
2016-11-25T08:57:50.579Z,7
2016-11-25T08:59:01.669Z,7.23
2016-11-25T09:00:12.719Z,7.36
2016-11-25T09:01:23.746Z,7.56
2016-11-25T09:02:34.763Z,7.78
2016-11-25T09:03:45.801Z,7.89
2016-11-25T09:04:57.297Z,8.03
2016-11-25T09:06:08.330Z,8.16
2016-11-25T09:07:19.766Z,8.19
2016-11-25T09:08:30.790Z,8.25
2016-11-25T09:09:41.836Z,8.21
2016-11-25T09:10:52.934Z,8.36
2016-11-25T09:12:03.973Z,8.36
2016-11-25T09:13:15.006Z,8.54
2016-11-25T09:14:26.060Z,8.54
2016-11-25T09:15:37.092Z,8.68
2016-11-25T09:16:48.178Z,8.74
2016-11-25T09:17:59.220Z,8.87
2016-11-25T09:19:10.467Z,9.21
2016-11-25T09:20:21.503Z,9.32
2016-11-25T09:21:32.539Z,9.5
2016-11-25T09:22:43.617Z,9.85
2016-11-25T09:23:54.660Z,10.32
2016-11-25T09:25:05.701Z,10.42
2016-11-25T09:26:16.743Z,10.46
2016-11-25T09:27:27.779Z,10.25
2016-11-25T09:28:38.866Z,10.32
2016-11-25T09:29:50.099Z,10.39
2016-11-25T09:31:01.139Z,10.28
2016-11-25T09:32:12.375Z,9.95
2016-11-25T09:33:23.405Z,9.85
2016-11-25T09:34:34.494Z,10.1
2016-11-25T09:35:45.516Z,10.25
2016-11-25T09:36:56.550Z,10.41
2016-11-25T09:38:07.602Z,10.59
2016-11-25T09:39:18.643Z,10.58
2016-11-25T09:40:29.730Z,10.67
2016-11-25T09:41:40.975Z,10.42
2016-11-25T09:42:52.021Z,10.25
2016-11-25T09:44:03.069Z,10.25
2016-11-25T09:45:14.315Z,10.17
2016-11-25T09:46:25.398Z,10.15
2016-11-25T09:47:36.438Z,10.17
2016-11-25T09:48:47.902Z,10.31
2016-11-25T09:49:58.953Z,10.44
2016-11-25T09:51:09.980Z,10.44
2016-11-25T09:52:21.065Z,10.36
2016-11-25T09:53:32.098Z,10.46
2016-11-25T09:54:43.344Z,10.39
2016-11-25T09:55:54.379Z,10.41
2016-11-25T09:57:05.449Z,10.32
2016-11-25T09:58:16.545Z,10.23
2016-11-25T09:59:27.781Z,10.25
2016-11-25T10:00:38.817Z,10.14
2016-11-25T10:01:49.856Z,10.1
2016-11-25T10:03:00.896Z,10.28
2016-11-25T10:04:11.980Z,10.44
2016-11-25T10:05:23.015Z,10.67
2016-11-25T10:06:34.055Z,10.88
2016-11-25T10:07:45.100Z,11.06
2016-11-25T10:08:56.344Z,11
2016-11-25T10:10:07.638Z,11.1
2016-11-25T10:11:18.672Z,11.12
2016-11-25T10:12:29.728Z,11.18
2016-11-25T10:13:40.969Z,11.05
2016-11-25T10:14:52.003Z,11.03
2016-11-25T10:16:03.090Z,11.24
2016-11-25T10:17:14.128Z,11.46
2016-11-25T10:18:25.175Z,11.61
2016-11-25T10:19:36.222Z,11.6
2016-11-25T10:20:47.266Z,11.61
2016-11-25T10:21:58.344Z,11.48
2016-11-25T10:23:09.390Z,11.51
2016-11-25T10:24:20.444Z,11.59
2016-11-25T10:25:31.488Z,11.64
2016-11-25T10:26:42.524Z,11.91
2016-11-25T10:27:53.631Z,11.98
2016-11-25T10:29:04.677Z,12.03
2016-11-25T10:30:15.719Z,11.98
2016-11-25T10:31:26.761Z,11.82
2016-11-25T10:32:37.804Z,11.76
2016-11-25T10:33:48.896Z,11.63
2016-11-25T10:34:59.944Z,11.61
2016-11-25T10:36:10.999Z,11.49
2016-11-25T10:37:22.031Z,11.56
2016-11-25T10:38:33.075Z,11.7
2016-11-25T10:39:44.179Z,11.68
2016-11-25T10:40:55.215Z,11.61
2016-11-25T10:42:06.250Z,11.59
2016-11-25T10:43:17.495Z,11.59
2016-11-25T10:44:28.545Z,11.67
2016-11-25T10:45:39.831Z,11.59
2016-11-25T10:46:50.865Z,11.59
2016-11-25T10:48:01.928Z,11.45
2016-11-25T10:49:12.973Z,11.39
2016-11-25T10:50:24.008Z,11.33
2016-11-25T10:51:35.099Z,11.02
2016-11-25T10:52:46.154Z,11.06
2016-11-25T10:53:57.200Z,11.05
2016-11-25T10:55:08.233Z,11.16
2016-11-25T10:56:19.276Z,11.35
2016-11-25T10:57:30.350Z,11.57
2016-11-25T10:58:41.381Z,11.68
2016-11-25T10:59:52.639Z,11.63
2016-11-25T11:01:03.693Z,11.56
2016-11-25T11:02:14.730Z,11.51
2016-11-25T11:03:26.019Z,11.63
2016-11-25T11:04:37.262Z,11.63
2016-11-25T11:05:48.296Z,11.59
2016-11-25T11:06:59.334Z,11.68
2016-11-25T11:08:10.370Z,11.84
2016-11-25T11:09:21.483Z,11.71
2016-11-25T11:10:32.531Z,11.61
2016-11-25T11:11:43.775Z,11.53
2016-11-25T11:12:54.814Z,11.18
2016-11-25T11:14:05.865Z,10.94
2016-11-25T11:15:16.952Z,10.9
2016-11-25T11:16:27.988Z,10.79
2016-11-25T11:17:39.029Z,10.77
2016-11-25T11:18:50.068Z,10.8
2016-11-25T11:20:01.125Z,10.88
2016-11-25T11:21:12.206Z,10.97
2016-11-25T11:22:23.245Z,10.91
2016-11-25T11:23:34.306Z,11.1
2016-11-25T11:24:45.552Z,11.1
2016-11-25T11:25:56.575Z,10.97
2016-11-25T11:27:07.860Z,10.84
2016-11-25T11:28:19.097Z,10.9
2016-11-25T11:29:30.146Z,10.92
2016-11-25T11:30:41.181Z,10.83
2016-11-25T11:31:52.215Z,10.75
2016-11-25T11:33:03.508Z,10.79
2016-11-25T11:34:14.553Z,11.02
2016-11-25T11:35:25.579Z,11
2016-11-25T11:36:36.815Z,11
2016-11-25T11:37:47.847Z,11.15
2016-11-25T11:38:58.963Z,11.05
2016-11-25T11:40:10.199Z,11.12
2016-11-25T11:41:21.247Z,11.12
2016-11-25T11:42:32.501Z,11.03
2016-11-25T11:43:43.528Z,11
2016-11-25T11:44:54.613Z,10.91
2016-11-25T11:46:05.644Z,10.91
2016-11-25T11:47:16.678Z,10.94
2016-11-25T11:48:27.911Z,10.9
2016-11-25T11:49:38.958Z,10.72
2016-11-25T11:50:50.032Z,10.7
2016-11-25T11:52:01.069Z,10.69
2016-11-25T11:53:12.133Z,10.79
2016-11-25T11:54:23.175Z,10.73
2016-11-25T11:55:34.208Z,10.67
2016-11-25T11:56:45.298Z,10.39
2016-11-25T11:57:56.338Z,10.26
2016-11-25T11:59:07.371Z,10.21
2016-11-25T12:00:18.398Z,10.2
2016-11-25T12:01:29.433Z,10.33
2016-11-25T12:02:40.722Z,10.57
2016-11-25T12:03:51.955Z,10.73
2016-11-25T12:05:03.185Z,10.8
2016-11-25T12:06:14.221Z,10.9
2016-11-25T12:07:25.230Z,10.9
2016-11-25T12:08:36.323Z,10.9
2016-11-25T12:09:47.372Z,10.75
2016-11-25T12:10:58.396Z,10.72
2016-11-25T12:12:09.427Z,10.77
2016-11-25T12:13:20.493Z,10.65
2016-11-25T12:14:31.592Z,10.59
2016-11-25T12:15:42.616Z,10.57
2016-11-25T12:16:53.660Z,10.55
2016-11-25T12:18:04.705Z,10.41
2016-11-25T12:19:15.741Z,10.25
2016-11-25T12:20:26.835Z,10.33
2016-11-25T12:21:37.875Z,10.49
2016-11-25T12:22:49.110Z,10.85
2016-11-25T12:24:00.170Z,11.08
2016-11-25T12:25:11.191Z,11.2
2016-11-25T12:26:22.278Z,11.43
2016-11-25T12:27:33.315Z,11.56
2016-11-25T12:28:44.345Z,11.78
2016-11-25T12:29:55.383Z,11.97
2016-11-25T12:31:06.417Z,12.11
2016-11-25T12:32:17.492Z,12.19
2016-11-25T12:33:28.725Z,12.26
2016-11-25T12:34:39.753Z,12.31
2016-11-25T12:35:50.788Z,12.1
2016-11-25T12:37:01.829Z,12.11
2016-11-25T12:38:12.902Z,12.22
2016-11-25T12:39:23.970Z,12.1
2016-11-25T12:40:34.996Z,12.11
2016-11-25T12:41:46.022Z,12.15
2016-11-25T12:42:57.053Z,11.91
2016-11-25T12:44:08.141Z,11.89
2016-11-25T12:45:19.198Z,11.66
2016-11-25T12:46:30.233Z,11.63
2016-11-25T12:47:41.293Z,11.56
2016-11-25T12:48:52.526Z,11.49
2016-11-25T12:50:03.606Z,11.38
2016-11-25T12:51:14.636Z,11.28
2016-11-25T12:52:25.671Z,11.16
2016-11-25T12:53:36.754Z,11.16
2016-11-25T12:54:47.777Z,11.06
2016-11-25T12:55:58.856Z,11.06
2016-11-25T12:57:09.905Z,10.98
2016-11-25T12:58:20.929Z,11.09
2016-11-25T12:59:31.968Z,11.09
2016-11-25T13:00:42.998Z,11.03
2016-11-25T13:01:54.141Z,11.09
2016-11-25T13:03:05.384Z,10.98
2016-11-25T13:04:16.421Z,10.94
2016-11-25T13:05:27.460Z,11.06
2016-11-25T13:06:38.495Z,10.73
2016-11-25T13:07:49.578Z,10.66
2016-11-25T13:09:00.646Z,10.52
2016-11-25T13:10:11.687Z,10.42
2016-11-25T13:11:22.914Z,10.35
2016-11-25T13:12:33.948Z,10.26
2016-11-25T13:13:45.029Z,10.25
2016-11-25T13:14:56.068Z,10.28
2016-11-25T13:16:07.302Z,10.46
2016-11-25T13:17:18.330Z,10.52
2016-11-25T13:18:29.354Z,10.65
2016-11-25T13:19:40.440Z,10.67
2016-11-25T13:20:51.488Z,10.75
2016-11-25T13:22:02.517Z,10.75
2016-11-25T13:23:13.548Z,10.73
2016-11-25T13:24:24.584Z,10.67
2016-11-25T13:25:35.683Z,10.69
2016-11-25T13:26:46.705Z,10.77
2016-11-25T13:27:57.726Z,10.73
2016-11-25T13:29:08.751Z,10.73
2016-11-25T13:30:19.992Z,10.58
2016-11-25T13:31:31.289Z,10.63
2016-11-25T13:32:42.326Z,10.69
2016-11-25T13:33:53.380Z,10.57
2016-11-25T13:35:04.422Z,10.49
2016-11-25T13:36:15.676Z,10.41
2016-11-25T13:37:26.782Z,10.31
2016-11-25T13:38:37.812Z,10.32
2016-11-25T13:39:48.836Z,10.11
2016-11-25T13:41:00.057Z,9.98
2016-11-25T13:42:11.089Z,9.78
2016-11-25T13:43:22.154Z,9.62
2016-11-25T13:44:33.421Z,9.47
2016-11-25T13:45:44.641Z,9.38
2016-11-25T13:46:55.881Z,9.35
2016-11-25T13:48:06.913Z,9.41
2016-11-25T13:49:18.218Z,9.32
2016-11-25T13:50:29.227Z,9.37
2016-11-25T13:51:40.255Z,9.38
2016-11-25T13:52:51.272Z,9.37
2016-11-25T13:54:02.301Z,9.3
2016-11-25T13:55:13.395Z,9.21
2016-11-25T13:56:24.424Z,9.11
2016-11-25T13:57:35.686Z,9.17
2016-11-25T13:58:46.914Z,9.16
2016-11-25T13:59:57.948Z,9.01
2016-11-25T14:01:09.027Z,8.98
2016-11-25T14:02:20.070Z,8.92
2016-11-25T14:03:31.092Z,8.83
2016-11-25T14:04:42.115Z,8.82
2016-11-25T14:05:53.145Z,8.79
2016-11-25T14:07:04.228Z,8.72
2016-11-25T14:08:15.464Z,8.69
2016-11-25T14:09:26.496Z,8.53
2016-11-25T14:10:37.525Z,8.54
2016-11-25T14:11:48.742Z,8.64
2016-11-25T14:12:59.825Z,8.53
2016-11-25T14:14:10.842Z,8.5
2016-11-25T14:15:21.893Z,8.47
2016-11-25T14:16:33.121Z,8.46
2016-11-25T14:17:44.153Z,8.35
2016-11-25T14:18:55.222Z,8.31
2016-11-25T14:20:06.249Z,8.24
2016-11-25T14:21:17.299Z,8.09
2016-11-25T14:22:28.319Z,8.06
2016-11-25T14:23:39.566Z,7.98
2016-11-25T14:24:50.660Z,7.96
2016-11-25T14:26:01.684Z,7.88
2016-11-25T14:27:12.917Z,7.77
2016-11-25T14:28:23.946Z,7.77
2016-11-25T14:29:34.982Z,7.82
2016-11-25T14:30:46.078Z,7.67
2016-11-25T14:31:57.109Z,7.74
2016-11-25T14:33:08.139Z,7.58
2016-11-25T14:34:19.362Z,7.48
2016-11-25T14:35:30.590Z,7.47
2016-11-25T14:36:41.713Z,7.41
2016-11-25T14:37:52.740Z,7.41
2016-11-25T14:39:03.763Z,7.4
2016-11-25T14:40:14.997Z,7.37
2016-11-25T14:41:26.018Z,7.44
2016-11-25T14:42:37.102Z,7.33
2016-11-25T14:43:48.143Z,7.27
2016-11-25T14:44:59.188Z,7.18
2016-11-25T14:46:10.223Z,7.27
2016-11-25T14:47:21.254Z,7.19
2016-11-25T14:48:32.328Z,7.21
2016-11-25T14:49:43.361Z,7.03
2016-11-25T14:50:54.390Z,7.04
2016-11-25T14:52:05.433Z,7.01
2016-11-25T14:53:16.482Z,6.91
2016-11-25T14:54:27.555Z,6.94
2016-11-25T14:55:38.594Z,6.86
2016-11-25T14:56:49.835Z,6.88
2016-11-25T14:58:00.867Z,6.79
2016-11-25T14:59:12.165Z,6.82
2016-11-25T15:00:23.243Z,6.86
2016-11-25T15:01:34.484Z,6.78
2016-11-25T15:02:45.713Z,6.65
2016-11-25T15:03:56.746Z,6.68
2016-11-25T15:05:07.973Z,6.61
2016-11-25T15:06:19.059Z,6.57
2016-11-25T15:07:30.076Z,6.58
2016-11-25T15:08:41.099Z,6.52
2016-11-25T15:09:52.131Z,6.47
2016-11-25T15:11:03.395Z,6.52
2016-11-25T15:12:14.465Z,6.4
2016-11-25T15:13:25.486Z,6.39
2016-11-25T15:14:36.522Z,6.36
2016-11-25T15:15:47.765Z,6.37
2016-11-25T15:16:58.784Z,6.33
2016-11-25T15:18:09.862Z,6.28
2016-11-25T15:19:20.883Z,6.26
2016-11-25T15:20:31.927Z,6.07
2016-11-25T15:21:42.950Z,6.09
2016-11-25T15:22:53.984Z,6.14
2016-11-25T15:24:05.574Z,6.17
2016-11-25T15:25:16.605Z,6.02
2016-11-25T15:26:27.651Z,6.03
2016-11-25T15:27:38.716Z,5.98
2016-11-25T15:28:49.743Z,5.98
2016-11-25T15:30:00.821Z,5.95
2016-11-25T15:31:11.862Z,5.99
2016-11-25T15:32:22.892Z,6
2016-11-25T15:33:33.920Z,5.95
2016-11-25T15:34:45.149Z,6
2016-11-25T15:35:56.426Z,5.99
2016-11-25T15:37:07.457Z,5.95
2016-11-25T15:38:18.478Z,5.81
2016-11-25T15:39:29.500Z,5.85
2016-11-25T15:40:40.523Z,5.77
2016-11-25T15:41:51.800Z,5.8